createdAt,value
2023-03-23T15:58:30.690Z,16.40
2023-03-23T16:00:59.720Z,16.40
2023-03-23T16:03:30.492Z,16.30
2023-03-23T16:05:59.969Z,16.40
2023-03-23T16:08:28.281Z,16.40
2023-03-23T16:10:56.663Z,16.40
2023-03-23T16:13:24.902Z,16.40
2023-03-23T16:16:09.535Z,16.40
2023-03-23T16:18:37.831Z,16.40
2023-03-23T16:21:06.601Z,16.30
2023-03-23T16:23:34.874Z,16.20
2023-03-23T16:26:03.123Z,16.20
2023-03-23T16:28:31.444Z,16.10
2023-03-23T16:31:01.170Z,16.10
2023-03-23T16:33:29.691Z,16.00
2023-03-23T16:35:58.604Z,16.00
2023-03-23T16:38:26.983Z,15.90
2023-03-23T16:40:55.877Z,15.90
2023-03-23T16:43:24.154Z,15.90
2023-03-23T16:45:52.424Z,15.80
2023-03-23T16:48:22.220Z,15.80
2023-03-23T16:50:50.566Z,15.80
2023-03-23T16:53:19.454Z,15.80
2023-03-23T16:55:48.588Z,15.70
2023-03-23T16:58:17.998Z,15.70
2023-03-23T17:00:48.112Z,15.70
2023-03-23T17:03:16.964Z,15.80
2023-03-23T17:05:47.060Z,15.70
2023-03-23T17:08:15.574Z,15.70
2023-03-23T17:10:44.491Z,15.70
2023-03-23T17:13:12.898Z,15.70
2023-03-23T17:15:43.814Z,15.70
2023-03-23T17:18:14.279Z,15.70
2023-03-23T17:20:42.962Z,15.70
2023-03-23T17:23:12.709Z,15.70
2023-03-23T17:25:41.176Z,15.70
2023-03-23T17:28:09.475Z,15.60
2023-03-23T17:30:37.739Z,15.60
2023-03-23T17:33:06.000Z,15.60
2023-03-23T17:35:34.363Z,15.60
2023-03-23T17:38:02.656Z,15.60
2023-03-23T17:40:32.367Z,15.60
2023-03-23T17:43:00.701Z,15.60
2023-03-23T17:45:29.153Z,15.50
2023-03-23T17:47:57.431Z,15.50
2023-03-23T17:50:25.770Z,15.40
2023-03-23T17:52:54.074Z,15.40
2023-03-23T17:55:22.316Z,15.30
2023-03-23T17:57:52.020Z,15.30
2023-03-23T18:00:21.495Z,15.30
2023-03-23T18:02:49.862Z,15.20
2023-03-23T18:05:18.347Z,15.20
2023-03-23T18:07:46.668Z,15.20
2023-03-23T18:10:15.126Z,15.30
2023-03-23T18:12:43.412Z,15.30
2023-03-23T18:15:13.327Z,15.30
2023-03-23T18:17:42.394Z,15.30
2023-03-23T18:20:10.915Z,15.30
2023-03-23T18:22:39.268Z,15.20
2023-03-23T18:25:07.781Z,15.20
2023-03-23T18:27:36.172Z,15.20
2023-03-23T18:30:04.697Z,15.20
2023-03-23T18:32:36.151Z,15.10
2023-03-23T18:35:04.904Z,15.10
2023-03-23T18:37:33.214Z,15.10
2023-03-23T18:40:01.466Z,15.00
2023-03-23T18:42:29.736Z,15.00
2023-03-23T18:44:59.957Z,15.00
2023-03-23T18:47:28.329Z,14.90
2023-03-23T18:49:59.629Z,14.90
2023-03-23T18:52:30.834Z,14.80
2023-03-23T18:54:59.139Z,14.80
2023-03-23T18:57:27.518Z,14.80
2023-03-23T18:59:55.786Z,14.80
2023-03-23T19:02:24.159Z,14.70
2023-03-23T19:04:52.555Z,14.70
2023-03-23T19:07:22.256Z,14.60
2023-03-23T19:09:50.574Z,14.60
2023-03-23T19:12:18.900Z,14.60
2023-03-23T19:14:47.175Z,14.60
2023-03-23T19:17:15.609Z,14.50
2023-03-23T19:19:44.834Z,14.60
2023-03-23T19:22:13.194Z,14.60
2023-03-23T19:24:42.951Z,14.50
2023-03-23T19:27:11.286Z,14.50
2023-03-23T19:29:39.836Z,14.50
2023-03-23T19:32:09.485Z,14.50
2023-03-23T19:34:39.419Z,14.50
2023-03-23T19:37:11.108Z,14.60
2023-03-23T19:39:41.814Z,14.60
2023-03-23T19:42:17.011Z,14.60
2023-03-23T19:44:45.498Z,14.60
2023-03-23T19:47:13.931Z,14.70
2023-03-23T19:49:42.488Z,14.70
2023-03-23T19:52:12.828Z,14.80
2023-03-23T19:54:42.449Z,14.80
2023-03-23T19:57:12.498Z,14.80
2023-03-23T19:59:40.997Z,14.80
2023-03-23T20:02:11.713Z,14.80
2023-03-23T20:04:40.141Z,14.80
2023-03-23T20:07:08.780Z,14.70
2023-03-23T20:09:38.263Z,14.70
2023-03-23T20:12:07.367Z,14.70
2023-03-23T20:14:38.408Z,14.70
2023-03-23T20:17:09.924Z,14.70
2023-03-23T20:19:38.631Z,14.70
2023-03-23T20:22:07.374Z,14.60
2023-03-23T20:24:38.019Z,14.60
2023-03-23T20:27:06.749Z,14.60
2023-03-23T20:29:36.892Z,14.60
2023-03-23T20:32:05.455Z,14.60
2023-03-23T20:34:34.146Z,14.60
2023-03-23T20:37:02.995Z,14.60
2023-03-23T20:39:32.574Z,14.60
2023-03-23T20:42:03.515Z,14.60
2023-03-23T20:44:36.189Z,14.60
2023-03-23T20:47:06.834Z,14.70
2023-03-23T20:49:35.338Z,14.70
2023-03-23T20:52:03.721Z,14.70
2023-03-23T20:54:32.266Z,14.70
2023-03-23T20:57:01.302Z,14.80
2023-03-23T20:59:29.732Z,14.70
2023-03-23T21:01:58.203Z,14.80
2023-03-23T21:04:30.328Z,14.80
2023-03-23T21:07:00.801Z,14.70
2023-03-23T21:09:29.384Z,14.70
2023-03-23T21:11:59.248Z,14.70
2023-03-23T21:14:27.739Z,14.70
2023-03-23T21:16:57.063Z,14.70
2023-03-23T21:19:30.460Z,14.70
2023-03-23T21:21:59.100Z,14.60
2023-03-23T21:24:28.684Z,14.60
2023-03-23T21:26:58.458Z,14.60
2023-03-23T21:29:27.640Z,14.60
2023-03-23T21:34:29.926Z,14.60
2023-03-23T21:36:58.433Z,14.60
2023-03-23T21:39:27.187Z,14.60
2023-03-23T21:41:55.673Z,14.60
2023-03-23T21:44:24.387Z,14.60
2023-03-23T21:46:54.750Z,14.60
2023-03-23T21:49:23.450Z,14.60
2023-03-23T21:51:53.225Z,14.60
2023-03-23T21:54:21.741Z,14.60
2023-03-23T21:56:53.368Z,14.60
2023-03-23T21:59:23.076Z,14.50
2023-03-23T22:01:52.191Z,14.60
2023-03-23T22:04:21.192Z,14.60
2023-03-23T22:06:49.736Z,14.50
2023-03-23T22:09:19.756Z,14.50
2023-03-23T22:11:48.276Z,14.50
2023-03-23T22:14:16.822Z,14.60
2023-03-23T22:16:45.291Z,14.50
2023-03-23T22:19:13.910Z,14.50
2023-03-23T22:21:42.597Z,14.60
2023-03-23T22:24:11.340Z,14.50
2023-03-23T22:26:41.472Z,14.50
2023-03-23T22:29:11.350Z,14.50
2023-03-23T22:31:40.564Z,14.50
2023-03-23T22:34:09.092Z,14.50
2023-03-23T22:36:38.880Z,14.50
2023-03-23T22:39:07.397Z,14.40
2023-03-23T22:41:38.532Z,14.40
2023-03-23T22:44:12.752Z,14.30
2023-03-23T22:46:41.403Z,14.30
2023-03-23T22:49:10.235Z,14.30
2023-03-23T22:51:38.790Z,14.30
2023-03-23T22:54:07.449Z,14.30
2023-03-23T22:56:37.475Z,14.30
2023-03-23T22:59:07.541Z,14.30
2023-03-23T23:01:37.459Z,14.30
2023-03-23T23:06:48.767Z,14.30
2023-03-23T23:09:17.255Z,14.30
2023-03-23T23:11:45.727Z,14.40
2023-03-23T23:14:15.646Z,14.30
2023-03-23T23:16:44.747Z,14.40
2023-03-23T23:19:13.442Z,14.40
2023-03-23T23:21:42.386Z,14.40
2023-03-23T23:24:10.869Z,14.40
2023-03-23T23:26:39.332Z,14.50
2023-03-23T23:29:08.072Z,14.50
2023-03-23T23:31:38.758Z,14.50
2023-03-23T23:34:07.436Z,14.50
2023-03-23T23:36:36.220Z,14.60
2023-03-23T23:39:06.102Z,14.60
2023-03-23T23:41:34.830Z,14.70
2023-03-23T23:44:03.348Z,14.80
2023-03-23T23:46:32.149Z,14.70
2023-03-23T23:49:02.395Z,14.70
2023-03-23T23:51:33.682Z,14.60
2023-03-23T23:54:02.688Z,14.60
2023-03-23T23:56:31.955Z,14.60
2023-03-23T23:59:00.497Z,14.60
